nws-alerts: Checking more than four warning/county codes can delay the loading of your pages. You should use a cron job to get the data.
^^
Station Historical Data
Daily Summary for April 18, 2018 Units:  English    Metric   Both
« Previous Day
Next Day »
Daily Weekly Monthly Yearly Custom
  High: Low: Average:
Temperature: TemperatureF °F 41.2 °F 62.2 °F
Dew Point: DewpointF °F 39.6 °F 46.8 °F
Humidity: Humidity% 28% 63%
Wind Speed: WindSpeedMPHmph 0.0mph 0.4mph
Wind Gust: WindSpeedGustMPHmph - -
Wind- - South
Pressure: PressureIn in 29.89 in -
Precipitation: 0.00 in    
Historical Graphs
 
 
Tabular Data for April 18, 2018
Time Temperature Dew Point Pressure Wind Wind Speed Wind Gust Humidity Rainfall Rate (Hourly)
TemperatureF °F DewpointF °F PressureIn in Calm     Humidity% HourlyPrecipIn in
00:02 51.3 °F 46.9 °F 30.01 in Calm     85% 0.00 in
00:07 51.1 °F 46.8 °F 30.01 in Calm     85% 0.00 in
00:13 51.1 °F 46.8 °F 30.01 in Calm     85% 0.00 in
00:19 50.9 °F 46.6 °F 30.00 in Calm     85% 0.00 in
00:24 50.7 °F 46.4 °F 30.00 in Calm     85% 0.00 in
00:29 50.5 °F 46.2 °F 30.00 in Calm     85% 0.00 in
00:35 50.5 °F 46.6 °F 30.00 in Calm     86% 0.00 in
00:40 50.4 °F 46.4 °F 30.00 in Calm     86% 0.00 in
00:45 50.4 °F 46.4 °F 30.00 in Calm     86% 0.00 in
00:50 50.2 °F 46.2 °F 30.01 in Calm     86% 0.00 in
00:56 50.0 °F 46.0 °F 30.01 in Calm     86% 0.00 in
01:01 49.8 °F 46.0 °F 30.01 in Calm     87% 0.00 in
01:06 49.6 °F 45.9 °F 30.00 in Calm     87% 0.00 in
01:12 49.5 °F 45.7 °F 30.00 in Calm     87% 0.00 in
01:17 49.5 °F 45.7 °F 30.00 in Calm     87% 0.00 in
01:23 49.3 °F 45.5 °F 30.00 in Calm     87% 0.00 in
01:28 49.3 °F 45.5 °F 30.00 in Calm     87% 0.00 in
01:33 48.9 °F 45.1 °F 30.00 in Calm     87% 0.00 in
01:38 48.7 °F 45.3 °F 30.00 in Calm     88% 0.00 in
01:43 48.7 °F 45.3 °F 30.00 in Calm     88% 0.00 in
01:49 48.6 °F 45.1 °F 29.99 in Calm     88% 0.00 in
01:54 48.4 °F 45.0 °F 29.99 in Calm     88% 0.00 in
01:59 48.0 °F 44.6 °F 29.99 in Calm     88% 0.00 in
02:04 48.0 °F 44.6 °F 29.99 in Calm     88% 0.00 in
02:10 47.8 °F 44.8 °F 29.99 in Calm     89% 0.00 in
02:16 47.7 °F 44.6 °F 29.99 in Calm     89% 0.00 in
02:21 47.5 °F 44.4 °F 29.99 in Calm     89% 0.00 in
02:26 47.3 °F 44.2 °F 29.98 in Calm     89% 0.00 in
02:31 47.1 °F 44.1 °F 29.99 in Calm     89% 0.00 in
02:37 46.9 °F 44.2 °F 29.98 in Calm     90% 0.00 in
02:42 46.8 °F 44.1 °F 29.99 in Calm     90% 0.00 in
02:48 46.8 °F 44.1 °F 29.99 in Calm     90% 0.00 in
02:53 46.6 °F 43.9 °F 29.99 in Calm     90% 0.00 in
02:58 46.6 °F 43.9 °F 29.99 in Calm     90% 0.00 in
03:03 46.4 °F 43.7 °F 29.99 in Calm     90% 0.00 in
03:08 46.2 °F 43.5 °F 29.98 in Calm     90% 0.00 in
03:14 46.0 °F 43.3 °F 29.98 in Calm     90% 0.00 in
03:19 45.9 °F 43.3 °F 29.98 in Calm     91% 0.00 in
03:25 45.9 °F 43.3 °F 29.98 in Calm     91% 0.00 in
03:30 45.7 °F 43.2 °F 29.98 in Calm     91% 0.00 in
03:35 45.5 °F 43.0 °F 29.98 in Calm     91% 0.00 in
03:40 45.3 °F 42.8 °F 29.98 in Calm     91% 0.00 in
03:46 45.3 °F 42.8 °F 29.98 in Calm     91% 0.00 in
03:51 45.1 °F 42.6 °F 29.98 in Calm     91% 0.00 in
03:56 45.1 °F 43.0 °F 29.98 in Calm     92% 0.00 in
04:01 45.0 °F 42.8 °F 29.98 in Calm     92% 0.00 in
04:07 44.8 °F 42.6 °F 29.98 in Calm     92% 0.00 in
04:12 44.8 °F 42.6 °F 29.99 in Calm     92% 0.00 in
04:18 44.6 °F 42.4 °F 29.99 in Calm     92% 0.00 in
04:23 44.4 °F 42.3 °F 29.99 in Calm     92% 0.00 in
04:29 44.4 °F 42.3 °F 29.99 in Calm     92% 0.00 in
04:34 44.2 °F 42.1 °F 29.99 in Calm     92% 0.00 in
04:39 44.1 °F 41.9 °F 29.99 in Calm     92% 0.00 in
04:45 44.1 °F 41.9 °F 29.99 in Calm     92% 0.00 in
04:50 43.9 °F 41.7 °F 30.00 in Calm     92% 0.00 in
04:56 43.7 °F 41.7 °F 30.00 in Calm     93% 0.00 in
05:01 43.5 °F 41.7 °F 30.00 in Calm     93% 0.00 in
05:07 43.3 °F 41.5 °F 30.00 in Calm     93% 0.00 in
05:12 43.3 °F 41.5 °F 30.00 in Calm     93% 0.00 in
05:17 43.3 °F 41.5 °F 30.01 in Calm     93% 0.00 in
05:22 43.3 °F 41.5 °F 30.01 in Calm     93% 0.00 in
05:28 43.2 °F 41.4 °F 30.01 in Calm     93% 0.00 in
05:33 43.2 °F 41.4 °F 30.01 in Calm     93% 0.00 in
05:38 43.0 °F 41.2 °F 30.01 in Calm     93% 0.00 in
05:43 43.0 °F 41.2 °F 30.01 in Calm     93% 0.00 in
05:48 43.0 °F 41.2 °F 30.01 in Calm     93% 0.00 in
05:53 42.8 °F 41.0 °F 30.02 in Calm     93% 0.00 in
05:58 42.6 °F 41.0 °F 30.02 in Calm     94% 0.00 in
06:04 42.6 °F 40.8 °F 30.02 in Calm     93% 0.00 in
06:10 42.4 °F 40.6 °F 30.02 in Calm     93% 0.00 in
06:15 42.3 °F 40.5 °F 30.02 in Calm     93% 0.00 in
06:20 42.3 °F 40.6 °F 30.02 in Calm     94% 0.00 in
06:26 42.1 °F 40.5 °F 30.02 in Calm     94% 0.00 in
06:32 41.9 °F 40.3 °F 30.02 in Calm     94% 0.00 in
06:37 41.7 °F 40.1 °F 30.02 in Calm     94% 0.00 in
06:42 41.5 °F 39.9 °F 30.02 in Calm     94% 0.00 in
06:47 41.5 °F 39.9 °F 30.03 in Calm     94% 0.00 in
06:53 41.5 °F 39.9 °F 30.03 in Calm     94% 0.00 in
06:58 41.5 °F 39.9 °F 30.03 in Calm     94% 0.00 in
07:03 41.4 °F 39.7 °F 30.03 in Calm     94% 0.00 in
07:08 41.4 °F 39.7 °F 30.03 in Calm     94% 0.00 in
07:13 41.2 °F 39.6 °F 30.03 in Calm     94% 0.00 in
07:18 41.2 °F 39.6 °F 30.03 in Calm     94% 0.00 in
07:24 41.2 °F 39.6 °F 30.03 in Calm     94% 0.00 in
07:30 41.2 °F 39.6 °F 30.03 in Calm     94% 0.00 in
07:35 41.2 °F 39.6 °F 30.03 in Calm     94% 0.00 in
07:40 41.2 °F 39.6 °F 30.03 in Calm     94% 0.00 in
07:45 41.4 °F 40.1 °F 30.03 in Calm     95% 0.00 in
07:51 41.5 °F 40.3 °F 30.04 in Calm     95% 0.00 in
07:56 41.5 °F 40.3 °F 30.03 in Calm     95% 0.00 in
08:01 41.7 °F 40.5 °F 30.03 in Calm     95% 0.00 in
08:06 42.1 °F 40.8 °F 30.04 in Calm     95% 0.00 in
08:11 42.4 °F 41.2 °F 30.03 in Calm     95% 0.00 in
08:17 42.8 °F 41.5 °F 30.03 in Calm     95% 0.00 in
08:22 43.2 °F 41.9 °F 30.03 in Calm     95% 0.00 in
08:27 43.5 °F 42.3 °F 30.03 in Calm     95% 0.00 in
08:32 43.9 °F 42.6 °F 30.03 in Calm     95% 0.00 in
08:38 44.8 °F 43.5 °F 30.03 in Calm     95% 0.00 in
08:44 45.5 °F 44.2 °F 30.03 in Calm     95% 0.00 in
08:49 46.2 °F 44.8 °F 30.04 in Calm     95% 0.00 in
08:54 47.1 °F 45.7 °F 30.04 in ENE 0.9 mph 1.0 mph 95% 0.00 in
08:59 48.2 °F 46.8 °F 30.04 in Calm   1.0 mph 95% 0.00 in
09:05 49.3 °F 47.8 °F 30.04 in Calm   1.0 mph 95% 0.00 in
09:10 50.5 °F 48.9 °F 30.04 in Calm     94% 0.00 in
09:16 52.0 °F 50.0 °F 30.04 in Calm     93% 0.00 in
09:21 53.2 °F 50.7 °F 30.04 in Calm     91% 0.00 in
09:27 54.3 °F 50.9 °F 30.04 in Calm     88% 0.00 in
09:32 55.6 °F 50.9 °F 30.04 in Calm     84% 0.00 in
09:37 56.1 °F 50.4 °F 30.03 in Calm     81% 0.00 in
09:42 56.8 °F 50.4 °F 30.03 in Calm     79% 0.00 in
09:48 58.1 °F 50.9 °F 30.03 in Calm     77% 0.00 in
09:53 58.6 °F 50.4 °F 30.03 in North 0.9 mph 4.0 mph 74% 0.00 in
09:58 59.4 °F 51.1 °F 30.03 in Calm   2.0 mph 74% 0.00 in
10:03 60.1 °F 51.1 °F 30.03 in Calm   3.0 mph 72% 0.00 in
10:08 60.4 °F 50.5 °F 30.03 in WNW 2.9 mph 3.0 mph 70% 0.00 in
10:13 61.0 °F 50.7 °F 30.03 in ESE 0.9 mph 5.0 mph 69% 0.00 in
10:18 61.5 °F 50.5 °F 30.03 in Calm   1.0 mph 67% 0.00 in
10:24 62.1 °F 49.8 °F 30.03 in Calm     64% 0.00 in
10:30 62.6 °F 50.2 °F 30.03 in ESE 0.9 mph 1.0 mph 64% 0.00 in
10:35 63.0 °F 49.8 °F 30.03 in NNW 0.9 mph 3.0 mph 62% 0.00 in
10:40 63.5 °F 49.3 °F 30.03 in Calm   1.0 mph 60% 0.00 in
10:45 63.9 °F 48.7 °F 30.03 in Calm     58% 0.00 in
10:50 64.6 °F 50.0 °F 30.04 in Calm   2.0 mph 59% 0.00 in
10:55 65.3 °F 49.6 °F 30.03 in Calm   1.0 mph 57% 0.00 in
11:01 66.0 °F 50.4 °F 30.03 in Calm   1.0 mph 57% 0.00 in
11:06 66.7 °F 49.6 °F 30.03 in Calm   8.0 mph 54% 0.00 in
11:12 66.9 °F 49.3 °F 30.02 in Calm   3.0 mph 53% 0.00 in
11:17 67.5 °F 48.2 °F 30.02 in West 2.9 mph 5.0 mph 50% 0.00 in
11:22 67.8 °F 49.1 °F 30.02 in ESE 0.9 mph 5.0 mph 51% 0.00 in
11:27 68.0 °F 49.3 °F 30.02 in Calm   4.0 mph 51% 0.00 in
11:32 68.2 °F 49.3 °F 30.02 in Calm   3.0 mph 51% 0.00 in
11:37 68.5 °F 49.6 °F 30.01 in ESE 0.9 mph 1.0 mph 51% 0.00 in
11:42 69.1 °F 50.2 °F 30.01 in ESE 4.0 mph 4.0 mph 51% 0.00 in
11:48 69.4 °F 50.5 °F 30.01 in Calm   4.0 mph 51% 0.00 in
11:53 69.4 °F 47.1 °F 30.01 in NW 6.0 mph 8.0 mph 45% 0.00 in
11:58 69.3 °F 48.7 °F 30.01 in Calm   2.0 mph 48% 0.00 in
12:04 69.8 °F 49.3 °F 30.01 in Calm   2.0 mph 48% 0.00 in
12:09 70.2 °F 50.2 °F 30.01 in ESE 0.9 mph 5.0 mph 49% 0.00 in
12:14 70.2 °F 49.6 °F 30.01 in East 2.0 mph 3.0 mph 48% 0.00 in
12:19 70.5 °F 48.2 °F 30.00 in Calm   7.0 mph 45% 0.00 in
12:24 70.9 °F 48.6 °F 30.00 in Calm   1.0 mph 45% 0.00 in
12:29 71.2 °F 48.7 °F 30.00 in Calm   5.0 mph 45% 0.00 in
12:34 72.0 °F 49.5 °F 30.00 in Calm   6.0 mph 45% 0.00 in
12:40 72.5 °F 50.0 °F 30.00 in WNW 0.9 mph 3.0 mph 45% 0.00 in
12:45 73.0 °F 48.0 °F 30.00 in Calm   4.0 mph 41% 0.00 in
12:50 73.0 °F 48.0 °F 30.00 in SE 2.0 mph 6.0 mph 41% 0.00 in
12:55 73.2 °F 48.0 °F 29.99 in Calm   2.0 mph 41% 0.00 in
13:00 73.4 °F 46.9 °F 29.99 in West 4.0 mph 11.0 mph 39% 0.00 in
13:05 73.6 °F 47.1 °F 29.98 in NNW 2.0 mph 8.0 mph 39% 0.00 in
13:10 73.8 °F 47.3 °F 29.98 in SE 2.0 mph 2.0 mph 39% 0.00 in
13:15 74.3 °F 49.1 °F 29.97 in Calm   2.0 mph 41% 0.00 in
13:20 74.8 °F 47.5 °F 29.97 in Calm   7.0 mph 38% 0.00 in
13:25 75.4 °F 45.1 °F 29.97 in ESE 6.0 mph 6.0 mph 34% 0.00 in
13:30 75.6 °F 46.8 °F 29.96 in Calm   2.0 mph 36% 0.00 in
13:36 76.3 °F 46.6 °F 29.96 in Calm   2.0 mph 35% 0.00 in
13:41 76.8 °F 45.5 °F 29.96 in SE 0.9 mph 9.0 mph 33% 0.00 in
13:46 76.8 °F 45.5 °F 29.96 in SSE 2.0 mph 8.0 mph 33% 0.00 in
13:52 76.8 °F 45.5 °F 29.96 in Calm   5.0 mph 33% 0.00 in
13:57 77.0 °F 46.4 °F 29.96 in NNE 4.9 mph 5.0 mph 34% 0.00 in
14:02 77.4 °F 46.8 °F 29.96 in ESE 4.0 mph 5.0 mph 34% 0.00 in
14:07 77.9 °F 46.4 °F 29.95 in NW 2.0 mph 3.0 mph 33% 0.00 in
14:12 78.1 °F 46.6 °F 29.95 in SE 0.9 mph 5.0 mph 33% 0.00 in
14:17 78.1 °F 46.6 °F 29.95 in Calm   1.0 mph 33% 0.00 in
14:23 78.1 °F 45.0 °F 29.96 in SW 2.0 mph 7.0 mph 31% 0.00 in
14:28 78.1 °F 46.6 °F 29.96 in West 4.9 mph 19.0 mph 33% 0.00 in
14:33 78.1 °F 47.5 °F 29.95 in West 0.9 mph 3.0 mph 34% 0.00 in
14:38 78.6 °F 48.7 °F 29.95 in ESE 2.0 mph 7.0 mph 35% 0.00 in
14:43 78.8 °F 48.0 °F 29.95 in ESE 4.0 mph 6.0 mph 34% 0.00 in
14:49 79.2 °F 49.1 °F 29.95 in Calm   1.0 mph 35% 0.00 in
14:54 79.2 °F 47.7 °F 29.95 in Calm   7.0 mph 33% 0.00 in
14:59 78.6 °F 47.8 °F 29.95 in Calm   4.0 mph 34% 0.00 in
15:04 79.0 °F 48.9 °F 29.94 in North 2.9 mph 4.0 mph 35% 0.00 in
15:09 79.0 °F 48.2 °F 29.94 in South 2.0 mph 5.0 mph 34% 0.00 in
15:14 79.3 °F 48.6 °F 29.94 in Calm   4.0 mph 34% 0.00 in
15:19 79.5 °F 47.8 °F 29.93 in Calm   6.0 mph 33% 0.00 in
15:25 79.7 °F 47.3 °F 29.93 in Calm   6.0 mph 32% 0.00 in
15:30 79.5 °F 47.1 °F 29.93 in Calm   4.0 mph 32% 0.00 in
15:35 79.5 °F 47.1 °F 29.92 in Calm   7.0 mph 32% 0.00 in
15:40 79.9 °F 46.6 °F 29.92 in West 0.9 mph 10.0 mph 31% 0.00 in
15:46 79.9 °F 46.6 °F 29.92 in Calm   9.0 mph 31% 0.00 in
15:51 80.1 °F 46.8 °F 29.92 in WSW 4.0 mph 8.0 mph 31% 0.00 in
15:57 79.9 °F 46.6 °F 29.91 in WSW 0.9 mph 1.0 mph 31% 0.00 in
16:02 80.1 °F 45.9 °F 29.91 in Calm   2.0 mph 30% 0.00 in
16:07 80.1 °F 46.8 °F 29.91 in Calm   4.0 mph 31% 0.00 in
16:12 80.2 °F 45.1 °F 29.91 in ENE 4.9 mph 7.0 mph 29% 0.00 in
16:18 80.4 °F 45.3 °F 29.90 in WSW 6.0 mph 9.0 mph 29% 0.00 in
16:23 80.6 °F 45.3 °F 29.90 in Calm   7.0 mph 29% 0.00 in
16:28 80.8 °F 45.5 °F 29.91 in WNW 2.9 mph 8.0 mph 29% 0.00 in
16:33 80.8 °F 44.6 °F 29.91 in Calm   10.0 mph 28% 0.00 in
16:39 80.8 °F 45.5 °F 29.90 in Calm   1.0 mph 29% 0.00 in
16:44 80.8 °F 45.5 °F 29.90 in NNW 2.0 mph 2.0 mph 29% 0.00 in
16:49 80.8 °F 44.6 °F 29.90 in ESE 0.9 mph 8.0 mph 28% 0.00 in
16:55 80.4 °F 44.2 °F 29.90 in SE 2.0 mph 4.0 mph 28% 0.00 in
17:00 80.2 °F 45.1 °F 29.90 in Calm   6.0 mph 29% 0.00 in
17:05 80.4 °F 44.2 °F 29.90 in Calm   6.0 mph 28% 0.00 in
17:10 80.2 °F 44.2 °F 29.89 in ESE 0.9 mph 4.0 mph 28% 0.00 in
17:15 80.4 °F 44.2 °F 29.89 in NNW 0.9 mph 3.0 mph 28% 0.00 in
17:21 80.4 °F 45.3 °F 29.89 in Calm     29% 0.00 in
17:26 80.2 °F 46.0 °F 29.89 in Calm   2.0 mph 30% 0.00 in
17:32 80.4 °F 45.3 °F 29.89 in ESE 0.9 mph 4.0 mph 29% 0.00 in
17:37 80.6 °F 46.2 °F 29.89 in Calm   1.0 mph 30% 0.00 in
17:42 80.4 °F 45.3 °F 29.89 in East 0.9 mph 1.0 mph 29% 0.00 in
17:47 80.2 °F 45.1 °F 29.89 in Calm   7.0 mph 29% 0.00 in
17:52 80.1 °F 46.8 °F 29.89 in Calm   2.0 mph 31% 0.00 in
17:58 79.9 °F 46.6 °F 29.89 in NNE 2.0 mph 5.0 mph 31% 0.00 in
18:03 79.5 °F 46.2 °F 29.89 in Calm   5.0 mph 31% 0.00 in
18:08 79.3 °F 46.9 °F 29.89 in Calm   6.0 mph 32% 0.00 in
18:13 79.2 °F 46.8 °F 29.89 in Calm   4.0 mph 32% 0.00 in
18:19 79.0 °F 47.5 °F 29.89 in Calm   2.0 mph 33% 0.00 in
18:24 79.0 °F 47.5 °F 29.89 in SE 0.9 mph 4.0 mph 33% 0.00 in
18:29 78.6 °F 49.5 °F 29.90 in NNW 0.9 mph 3.0 mph 36% 0.00 in
18:35 78.4 °F 48.6 °F 29.90 in WNW 2.0 mph 4.0 mph 35% 0.00 in
18:40 78.1 °F 48.9 °F 29.90 in North 0.9 mph 2.0 mph 36% 0.00 in
18:46 77.7 °F 48.6 °F 29.90 in NNW 0.9 mph 4.0 mph 36% 0.00 in
18:51 77.4 °F 48.4 °F 29.90 in NW 2.9 mph 12.0 mph 36% 0.00 in
18:56 77.0 °F 48.0 °F 29.91 in West 4.0 mph 8.0 mph 36% 0.00 in
19:01 76.8 °F 47.8 °F 29.91 in Calm   2.0 mph 36% 0.00 in
19:06 76.6 °F 48.4 °F 29.91 in Calm     37% 0.00 in
19:12 76.3 °F 48.7 °F 29.91 in Calm     38% 0.00 in
19:17 75.9 °F 49.1 °F 29.91 in Calm     39% 0.00 in
19:22 75.6 °F 49.5 °F 29.91 in Calm     40% 0.00 in
19:27 75.4 °F 49.5 °F 29.91 in Calm     40% 0.00 in
19:32 75.0 °F 50.4 °F 29.91 in Calm     42% 0.00 in
19:38 74.7 °F 50.7 °F 29.91 in Calm     43% 0.00 in
19:43 74.3 °F 50.4 °F 29.91 in Calm     43% 0.00 in
19:48 73.9 °F 50.0 °F 29.91 in Calm     43% 0.00 in
19:53 73.9 °F 50.7 °F 29.91 in Calm     44% 0.00 in
19:59 73.6 °F 51.4 °F 29.91 in Calm     46% 0.00 in
20:04 73.2 °F 51.3 °F 29.91 in Calm     46% 0.00 in
20:09 72.9 °F 51.4 °F 29.91 in Calm     47% 0.00 in
20:14 72.5 °F 51.1 °F 29.91 in Calm     47% 0.00 in
20:19 72.1 °F 50.7 °F 29.91 in Calm     47% 0.00 in
20:24 72.0 °F 51.3 °F 29.92 in Calm     48% 0.00 in
20:30 71.8 °F 51.6 °F 29.92 in Calm     49% 0.00 in
20:35 71.6 °F 51.4 °F 29.92 in Calm     49% 0.00 in
20:40 71.6 °F 51.4 °F 29.92 in Calm     49% 0.00 in
20:45 71.4 °F 51.8 °F 29.92 in Calm     50% 0.00 in
20:51 71.2 °F 51.6 °F 29.92 in Calm     50% 0.00 in
20:56 71.4 °F 51.8 °F 29.92 in Calm     50% 0.00 in
21:01 71.4 °F 51.8 °F 29.93 in Calm     50% 0.00 in
21:06 71.4 °F 52.3 °F 29.93 in Calm     51% 0.00 in
21:11 71.4 °F 52.3 °F 29.93 in Calm     51% 0.00 in
21:17 71.4 °F 52.3 °F 29.93 in Calm     51% 0.00 in
21:22 71.4 °F 52.3 °F 29.93 in Calm     51% 0.00 in
21:28 71.2 °F 52.2 °F 29.93 in Calm     51% 0.00 in
21:33 71.4 °F 52.3 °F 29.93 in Calm     51% 0.00 in
21:39 71.4 °F 52.9 °F 29.93 in Calm     52% 0.00 in
21:44 71.2 °F 53.2 °F 29.93 in Calm     53% 0.00 in
21:49 71.2 °F 52.7 °F 29.93 in Calm     52% 0.00 in
21:55 71.4 °F 52.9 °F 29.94 in Calm     52% 0.00 in
22:01 71.4 °F 53.4 °F 29.94 in Calm     53% 0.00 in
22:06 71.2 °F 53.8 °F 29.94 in Calm     54% 0.00 in
22:11 71.1 °F 53.1 °F 29.94 in Calm     53% 0.00 in
22:17 71.1 °F 53.6 °F 29.94 in Calm     54% 0.00 in
22:22 71.1 °F 54.1 °F 29.94 in Calm     55% 0.00 in
22:27 71.1 °F 53.6 °F 29.94 in Calm     54% 0.00 in
22:32 71.1 °F 54.1 °F 29.94 in Calm     55% 0.00 in
22:37 70.9 °F 54.0 °F 29.94 in Calm     55% 0.00 in
22:43 70.7 °F 54.3 °F 29.94 in Calm     56% 0.00 in
22:48 70.5 °F 53.6 °F 29.94 in Calm     55% 0.00 in
22:53 70.3 °F 54.0 °F 29.94 in Calm     56% 0.00 in
22:58 70.2 °F 54.1 °F 29.94 in Calm     57% 0.00 in
23:03 70.0 °F 54.0 °F 29.94 in Calm     57% 0.00 in
23:09 69.8 °F 54.3 °F 29.94 in Calm     58% 0.00 in
23:14 69.8 °F 54.3 °F 29.94 in Calm     58% 0.00 in
23:20 69.8 °F 54.9 °F 29.94 in Calm     59% 0.00 in
23:25 69.8 °F 54.9 °F 29.94 in Calm     59% 0.00 in
23:31 69.6 °F 54.7 °F 29.93 in Calm     59% 0.00 in
23:36 69.6 °F 55.0 °F 29.93 in Calm     60% 0.00 in
23:41 69.4 °F 54.9 °F 29.93 in Calm     60% 0.00 in
23:47 69.3 °F 55.2 °F 29.93 in Calm     61% 0.00 in
23:52 69.3 °F 55.8 °F 29.93 in Calm     62% 0.00 in
23:57 69.1 °F 55.0 °F 29.93 in Calm     61% 0.00 in
Ellijay Weather
Compliments of Weather Underground - 2.5 mb